createdAt,value
2019-01-11T00:00:18.255Z,44.58
2019-01-11T00:02:47.181Z,44.81
2019-01-11T00:05:14.441Z,45.09
2019-01-11T00:07:41.374Z,45.19
2019-01-11T00:10:08.622Z,45.41
2019-01-11T00:12:35.786Z,45.39
2019-01-11T00:15:02.677Z,45.27
2019-01-11T00:17:29.637Z,45.31
2019-01-11T00:20:03.273Z,45.65
2019-01-11T00:22:25.402Z,45.28
2019-01-11T00:24:52.356Z,45.41
2019-01-11T00:27:19.611Z,45.26
2019-01-11T00:29:46.578Z,45.26
2019-01-11T00:32:13.530Z,45.15
2019-01-11T00:34:40.417Z,45.42
2019-01-11T00:37:07.704Z,45.43
2019-01-11T00:39:34.694Z,45.54
2019-01-11T00:42:01.997Z,45.26
2019-01-11T00:44:28.918Z,45.80
2019-01-11T00:46:55.855Z,46.10
2019-01-11T00:49:23.031Z,45.72
2019-01-11T00:51:49.913Z,45.91
2019-01-11T00:54:17.236Z,45.89
2019-01-11T00:56:44.992Z,46.13
2019-01-11T00:59:12.145Z,46.04
2019-01-11T01:01:39.019Z,46.14
2019-01-11T01:04:05.935Z,46.31
2019-01-11T01:06:33.294Z,46.14
2019-01-11T01:09:00.545Z,45.72
2019-01-11T01:11:29.330Z,46.12
2019-01-11T01:13:56.585Z,46.57
2019-01-11T01:16:23.740Z,46.89
2019-01-11T01:18:51.003Z,46.87
2019-01-11T01:21:18.250Z,46.47
2019-01-11T01:23:45.502Z,46.39
2019-01-11T01:26:12.494Z,47.05
2019-01-11T01:28:39.801Z,46.89
2019-01-11T01:31:07.057Z,46.34
2019-01-11T01:33:34.018Z,46.36
2019-01-11T01:36:00.965Z,46.15
2019-01-11T01:38:27.912Z,46.06
2019-01-11T01:40:55.164Z,45.92
2019-01-11T01:43:22.091Z,46.43
2019-01-11T01:45:49.055Z,46.29
2019-01-11T01:48:16.016Z,46.63
2019-01-11T01:50:43.347Z,47.03
2019-01-11T01:53:10.287Z,47.05
2019-01-11T01:55:37.534Z,46.88
2019-01-11T01:58:04.786Z,46.47
2019-01-11T02:00:31.808Z,47.32
2019-01-11T02:02:58.989Z,47.19
2019-01-11T02:05:26.235Z,47.17
2019-01-11T02:07:53.177Z,47.02
2019-01-11T02:10:20.069Z,47.17
2019-01-11T02:12:47.021Z,46.88
2019-01-11T02:15:14.333Z,47.00
2019-01-11T02:17:41.278Z,47.41
2019-01-11T02:20:08.219Z,47.24
2019-01-11T02:22:35.350Z,47.12
2019-01-11T02:25:02.259Z,47.07
2019-01-11T02:27:29.217Z,46.66
2019-01-11T02:29:56.433Z,46.60
2019-01-11T02:32:23.590Z,46.54
2019-01-11T02:34:50.619Z,46.60
2019-01-11T02:37:17.823Z,46.55
2019-01-11T02:39:44.747Z,46.80
2019-01-11T02:42:11.695Z,46.67
2019-01-11T02:44:38.698Z,46.09
2019-01-11T02:47:05.883Z,46.36
2019-01-11T02:49:39.744Z,46.58
2019-01-11T02:52:01.856Z,46.37
2019-01-11T02:54:28.760Z,46.44
2019-01-11T02:56:55.728Z,47.00
2019-01-11T02:59:22.873Z,47.02
2019-01-11T03:01:49.771Z,46.56
2019-01-11T03:04:16.963Z,46.17
2019-01-11T03:06:44.100Z,46.09
2019-01-11T03:09:11.238Z,46.13
2019-01-11T03:11:38.494Z,46.08
2019-01-11T03:14:05.455Z,46.42
2019-01-11T03:16:32.323Z,46.78
2019-01-11T03:18:59.191Z,46.29
2019-01-11T03:21:26.058Z,45.86
2019-01-11T03:23:52.941Z,45.68
2019-01-11T03:26:21.260Z,45.40
2019-01-11T03:28:48.536Z,45.44
2019-01-11T03:31:15.775Z,45.59
2019-01-11T03:33:42.777Z,45.10
2019-01-11T03:36:09.729Z,45.39
2019-01-11T03:38:36.629Z,45.18
2019-01-11T03:41:03.605Z,44.95
2019-01-11T03:43:30.537Z,44.80
2019-01-11T03:45:57.433Z,45.00
2019-01-11T03:48:24.602Z,44.68
2019-01-11T03:50:51.575Z,45.04
2019-01-11T03:53:18.528Z,45.12
2019-01-11T03:55:45.444Z,45.03
2019-01-11T03:58:12.618Z,44.45
2019-01-11T04:00:40.328Z,44.66
2019-01-11T04:03:07.495Z,44.71
2019-01-11T04:05:34.469Z,44.62
2019-01-11T04:08:01.406Z,44.63
2019-01-11T04:10:28.349Z,44.04
2019-01-11T04:12:55.248Z,44.44
2019-01-11T04:15:22.206Z,44.53
2019-01-11T04:17:49.178Z,44.21
2019-01-11T04:20:16.140Z,44.49
2019-01-11T04:22:43.331Z,44.06
2019-01-11T04:25:10.504Z,44.22
2019-01-11T04:27:37.720Z,44.15
2019-01-11T04:30:04.705Z,44.04
2019-01-11T04:32:31.652Z,44.16
2019-01-11T04:34:58.543Z,44.20
2019-01-11T04:37:25.431Z,44.29
2019-01-11T04:39:52.305Z,43.97
2019-01-11T04:42:19.277Z,43.50
2019-01-11T04:44:46.234Z,44.12
2019-01-11T04:47:13.487Z,44.13
2019-01-11T04:49:40.429Z,44.01
2019-01-11T04:52:07.753Z,44.09
2019-01-11T04:54:35.061Z,43.70
2019-01-11T04:57:02.052Z,43.81
2019-01-11T04:59:29.009Z,43.68
2019-01-11T05:01:55.969Z,43.73
2019-01-11T05:04:23.211Z,43.70
2019-01-11T05:06:50.177Z,43.40
2019-01-11T05:09:17.128Z,43.27
2019-01-11T05:11:44.105Z,43.68
2019-01-11T05:14:10.969Z,43.80
2019-01-11T05:16:39.550Z,43.33
2019-01-11T05:19:06.414Z,43.58
2019-01-11T05:21:33.664Z,43.12
2019-01-11T05:24:01.046Z,43.33
2019-01-11T05:26:28.071Z,43.35
2019-01-11T05:28:55.022Z,43.44
2019-01-11T05:31:22.404Z,43.48
2019-01-11T05:33:49.744Z,43.69
2019-01-11T05:36:16.701Z,43.34
2019-01-11T05:38:43.928Z,43.23
2019-01-11T05:41:11.512Z,43.64
2019-01-11T05:43:38.715Z,43.90
2019-01-11T05:46:06.261Z,43.58
2019-01-11T05:48:33.472Z,43.59
2019-01-11T05:51:00.521Z,43.86
2019-01-11T05:53:27.703Z,43.51
2019-01-11T05:55:56.349Z,43.80
2019-01-11T05:58:23.282Z,43.80
2019-01-11T06:00:50.210Z,43.69
2019-01-11T06:03:17.183Z,43.75
2019-01-11T06:05:44.118Z,43.75
2019-01-11T06:08:10.994Z,43.71
2019-01-11T06:10:37.940Z,43.64
2019-01-11T06:13:04.848Z,43.44
2019-01-11T06:15:31.738Z,43.63
2019-01-11T06:17:59.129Z,43.89
2019-01-11T06:20:30.163Z,43.98
2019-01-11T06:22:54.806Z,43.82
2019-01-11T06:25:21.763Z,43.52
2019-01-11T06:27:48.790Z,44.16
2019-01-11T06:30:16.123Z,44.11
2019-01-11T06:32:43.274Z,43.94
2019-01-11T06:35:10.415Z,44.07
2019-01-11T06:37:37.375Z,44.18
2019-01-11T06:40:04.633Z,44.28
2019-01-11T06:42:31.806Z,44.29
2019-01-11T06:44:59.048Z,44.32
2019-01-11T06:47:27.619Z,44.43
2019-01-11T06:49:56.465Z,44.33
2019-01-11T06:52:23.740Z,44.53
2019-01-11T06:54:50.716Z,44.90
2019-01-11T06:57:17.708Z,45.09
2019-01-11T06:59:44.925Z,44.83
2019-01-11T07:02:11.818Z,44.62
2019-01-11T07:04:39.050Z,44.76
2019-01-11T07:07:06.280Z,44.89
2019-01-11T07:09:33.299Z,45.04
2019-01-11T07:12:00.209Z,45.36
2019-01-11T07:14:27.216Z,44.91
2019-01-11T07:16:54.229Z,44.79
2019-01-11T07:19:21.170Z,45.04
2019-01-11T07:21:48.151Z,45.64
2019-01-11T07:24:15.147Z,46.10
2019-01-11T07:26:42.040Z,46.14
2019-01-11T07:29:08.937Z,46.40
2019-01-11T07:31:35.909Z,46.53
2019-01-11T07:34:02.892Z,46.98
2019-01-11T07:36:29.913Z,47.08
2019-01-11T07:38:56.864Z,46.45
2019-01-11T07:41:23.811Z,46.50
2019-01-11T07:43:52.476Z,47.03
2019-01-11T07:46:19.344Z,47.06
2019-01-11T07:48:46.266Z,47.20
2019-01-11T07:51:13.229Z,46.77
2019-01-11T07:53:40.498Z,46.85
2019-01-11T07:56:08.539Z,46.47
2019-01-11T07:58:35.685Z,46.84
2019-01-11T08:01:02.898Z,46.80
2019-01-11T08:03:29.789Z,47.18
2019-01-11T08:05:57.000Z,46.59
2019-01-11T08:08:24.201Z,46.45
2019-01-11T08:10:51.092Z,46.61
2019-01-11T08:13:18.506Z,46.55
2019-01-11T08:15:45.642Z,46.69
2019-01-11T08:18:12.543Z,46.85
2019-01-11T08:20:39.436Z,46.72
2019-01-11T08:23:06.662Z,46.81
2019-01-11T08:25:33.541Z,47.13
2019-01-11T08:28:00.491Z,47.12
2019-01-11T08:30:27.452Z,46.89
2019-01-11T08:32:54.409Z,47.06
2019-01-11T08:35:21.370Z,47.11
2019-01-11T08:37:48.562Z,47.29
2019-01-11T08:40:15.478Z,46.88
2019-01-11T08:42:42.437Z,47.00
2019-01-11T08:45:09.411Z,46.41
2019-01-11T08:47:36.647Z,46.69
2019-01-11T08:50:03.788Z,46.70
2019-01-11T08:52:30.951Z,46.92
2019-01-11T08:54:58.111Z,47.10
2019-01-11T08:57:25.105Z,47.11
2019-01-11T08:59:52.418Z,47.02
2019-01-11T09:02:19.302Z,46.76
2019-01-11T09:04:46.173Z,46.97
2019-01-11T09:07:13.346Z,47.29
2019-01-11T09:09:40.237Z,47.12
2019-01-11T09:12:07.398Z,46.62
2019-01-11T09:14:34.289Z,46.96
2019-01-11T09:17:01.228Z,47.27
2019-01-11T09:19:28.435Z,47.54
2019-01-11T09:21:55.670Z,47.63
2019-01-11T09:24:22.643Z,47.73
2019-01-11T09:26:49.643Z,47.50
2019-01-11T09:29:16.646Z,48.19
2019-01-11T09:31:43.604Z,47.27
2019-01-11T09:34:10.568Z,47.03
2019-01-11T09:36:37.589Z,47.11
2019-01-11T09:39:04.556Z,48.02
2019-01-11T09:41:31.834Z,47.63
2019-01-11T09:43:58.713Z,47.47
2019-01-11T09:46:25.613Z,47.74
2019-01-11T09:48:52.964Z,50.70
2019-01-11T09:51:20.896Z,50.75
2019-01-11T09:53:48.137Z,50.95
2019-01-11T09:56:15.376Z,49.78
2019-01-11T09:58:42.523Z,49.77
2019-01-11T10:01:09.848Z,50.79
2019-01-11T10:03:37.093Z,50.35
2019-01-11T10:06:03.985Z,49.17
2019-01-11T10:08:31.185Z,49.42
2019-01-11T10:10:58.351Z,49.43
2019-01-11T10:13:25.274Z,49.28
2019-01-11T10:15:52.260Z,49.27
2019-01-11T10:18:19.345Z,49.18
2019-01-11T10:20:46.285Z,49.35
2019-01-11T10:23:13.222Z,49.06
2019-01-11T10:25:40.197Z,48.46
2019-01-11T10:28:07.593Z,48.97
2019-01-11T10:30:34.588Z,48.84
2019-01-11T10:33:01.724Z,48.10
2019-01-11T10:35:28.597Z,48.75
2019-01-11T10:37:55.501Z,47.92
2019-01-11T10:40:22.464Z,48.47
2019-01-11T10:42:49.427Z,48.15
2019-01-11T10:45:16.618Z,48.91
2019-01-11T10:47:43.958Z,49.08
2019-01-11T10:50:10.896Z,49.02
2019-01-11T10:52:38.165Z,49.28
2019-01-11T10:55:05.221Z,48.04
2019-01-11T10:57:32.469Z,48.95
2019-01-11T10:59:59.399Z,48.72
2019-01-11T11:02:26.652Z,48.78
2019-01-11T11:04:53.582Z,48.54
2019-01-11T11:07:20.980Z,48.52
2019-01-11T11:09:48.228Z,48.14
2019-01-11T11:12:15.476Z,47.70
2019-01-11T11:14:42.679Z,47.81
2019-01-11T11:17:09.886Z,48.34
2019-01-11T11:19:36.776Z,48.88
2019-01-11T11:22:03.733Z,48.29
2019-01-11T11:24:31.017Z,48.09
2019-01-11T11:26:58.974Z,47.33
2019-01-11T11:29:25.860Z,47.57
2019-01-11T11:31:53.065Z,47.84
2019-01-11T11:34:19.954Z,47.54
2019-01-11T11:36:47.485Z,47.42
2019-01-11T11:39:14.593Z,47.84
2019-01-11T11:41:41.747Z,48.57
2019-01-11T11:44:08.735Z,48.30
2019-01-11T11:49:11.800Z,47.89
2019-01-11T11:51:41.507Z,47.76
2019-01-11T11:54:07.975Z,47.39
2019-01-11T11:56:35.247Z,47.74
2019-01-11T11:59:02.285Z,50.04
2019-01-11T12:01:29.152Z,49.06
2019-01-11T12:03:56.369Z,49.32
2019-01-11T12:06:23.256Z,49.28
2019-01-11T12:08:50.491Z,49.39
2019-01-11T12:11:17.710Z,49.69
2019-01-11T12:13:44.652Z,49.56
2019-01-11T12:16:11.625Z,49.20
2019-01-11T12:18:38.757Z,48.89
2019-01-11T12:21:06.080Z,50.00
2019-01-11T12:23:33.024Z,49.49
2019-01-11T12:26:00.317Z,49.90
2019-01-11T12:28:27.457Z,50.23
2019-01-11T12:30:54.319Z,50.17
2019-01-11T12:33:21.271Z,50.38
2019-01-11T12:35:48.610Z,50.48
2019-01-11T12:38:15.796Z,48.80
2019-01-11T12:40:43.111Z,50.55
2019-01-11T12:43:10.372Z,50.36
2019-01-11T12:45:37.273Z,50.48
2019-01-11T12:48:04.248Z,50.18
2019-01-11T12:50:31.455Z,50.83
2019-01-11T12:52:58.494Z,52.04
2019-01-11T12:55:25.427Z,50.36
2019-01-11T12:57:52.554Z,51.28
2019-01-11T13:00:19.441Z,50.28
2019-01-11T13:02:48.396Z,49.84
2019-01-11T13:05:15.287Z,50.36
2019-01-11T13:07:42.236Z,49.87
2019-01-11T13:10:09.445Z,50.44
2019-01-11T13:12:37.844Z,50.52
2019-01-11T13:15:05.199Z,49.79
2019-01-11T13:17:32.718Z,49.79
2019-01-11T13:20:00.005Z,50.83
2019-01-11T13:22:27.975Z,50.88
2019-01-11T13:24:55.304Z,50.29
2019-01-11T13:27:22.576Z,50.19
2019-01-11T13:29:49.532Z,50.46
2019-01-11T13:32:16.506Z,49.71
2019-01-11T13:34:43.373Z,49.93
2019-01-11T13:37:10.327Z,49.60
2019-01-11T13:39:38.854Z,49.42
2019-01-11T13:42:05.841Z,49.55
2019-01-11T13:44:33.862Z,49.05
2019-01-11T13:47:00.825Z,48.82
2019-01-11T13:49:28.270Z,48.82
2019-01-11T13:51:55.257Z,48.58
2019-01-11T13:54:22.500Z,48.64
2019-01-11T13:56:49.371Z,48.72
2019-01-11T13:59:16.275Z,48.40
2019-01-11T14:01:43.616Z,49.66
2019-01-11T14:04:10.537Z,49.54
2019-01-11T14:06:37.470Z,49.23
2019-01-11T14:09:04.387Z,50.07
2019-01-11T14:11:33.684Z,50.07
2019-01-11T14:14:00.641Z,50.34
2019-01-11T14:16:27.935Z,50.25
2019-01-11T14:18:56.826Z,50.62
2019-01-11T14:21:23.698Z,51.09
2019-01-11T14:23:50.895Z,51.41
2019-01-11T14:26:18.142Z,51.22
2019-01-11T14:28:45.651Z,51.17
2019-01-11T14:31:12.896Z,50.69
2019-01-11T14:33:39.960Z,51.30
2019-01-11T14:36:10.272Z,51.08
2019-01-11T14:38:45.905Z,51.02
2019-01-11T14:41:12.932Z,50.89
2019-01-11T14:43:40.139Z,51.18
2019-01-11T14:46:07.070Z,51.02
2019-01-11T14:48:33.972Z,51.87
2019-01-11T14:51:00.967Z,51.85
2019-01-11T14:53:27.853Z,51.11
2019-01-11T14:55:56.322Z,50.85
2019-01-11T14:58:28.755Z,51.37
2019-01-11T15:00:51.857Z,51.20
2019-01-11T15:03:18.836Z,51.27
2019-01-11T15:05:50.851Z,50.90
2019-01-11T15:08:17.802Z,50.71
2019-01-11T15:10:45.350Z,51.16
2019-01-11T15:13:12.339Z,50.75
2019-01-11T15:15:40.636Z,50.72
2019-01-11T15:18:07.575Z,50.37
2019-01-11T15:20:34.577Z,49.89
2019-01-11T15:23:01.822Z,50.17
2019-01-11T15:25:29.075Z,50.61
2019-01-11T15:27:56.223Z,50.81
2019-01-11T15:30:23.281Z,50.94
2019-01-11T15:32:50.245Z,50.29
2019-01-11T15:35:17.860Z,50.22
2019-01-11T15:37:45.205Z,50.90
2019-01-11T15:40:12.182Z,51.19
2019-01-11T15:42:39.253Z,50.72
2019-01-11T15:45:06.239Z,52.06
2019-01-11T15:47:33.281Z,52.36
2019-01-11T15:50:00.347Z,52.15
2019-01-11T15:52:33.127Z,51.88
2019-01-11T15:54:56.360Z,52.05
2019-01-11T15:57:23.650Z,52.35
2019-01-11T15:59:50.617Z,53.44
2019-01-11T16:02:17.619Z,53.46
2019-01-11T16:04:44.584Z,52.78
2019-01-11T16:07:11.527Z,53.03
2019-01-11T16:09:38.509Z,52.85
2019-01-11T16:12:05.824Z,53.17
2019-01-11T16:14:32.763Z,53.28
2019-01-11T16:16:59.786Z,53.80
2019-01-11T16:19:26.912Z,53.80
2019-01-11T16:21:54.264Z,53.96
2019-01-11T16:24:21.698Z,54.12
2019-01-11T16:26:48.676Z,54.08
2019-01-11T16:29:17.666Z,54.25
2019-01-11T16:31:49.937Z,53.22
2019-01-11T16:34:18.369Z,53.48
2019-01-11T16:36:48.982Z,54.40
2019-01-11T16:39:15.961Z,52.99
2019-01-11T16:41:43.011Z,52.91
2019-01-11T16:44:09.957Z,53.63
2019-01-11T16:46:37.203Z,54.04
2019-01-11T16:49:04.209Z,54.27
2019-01-11T16:51:31.312Z,54.23
2019-01-11T16:53:58.320Z,54.45
2019-01-11T16:56:25.235Z,53.69
2019-01-11T16:58:54.956Z,52.99
2019-01-11T17:01:22.230Z,53.20
2019-01-11T17:03:49.242Z,54.05
2019-01-11T17:06:16.260Z,53.97
2019-01-11T17:08:43.537Z,53.56
2019-01-11T17:11:10.451Z,52.21
2019-01-11T17:13:40.692Z,53.35
2019-01-11T17:16:06.366Z,52.60
2019-01-11T17:18:33.621Z,52.19
2019-01-11T17:21:00.895Z,52.92
2019-01-11T17:23:27.928Z,53.11
2019-01-11T17:25:54.841Z,51.72
2019-01-11T17:28:23.291Z,52.45
2019-01-11T17:30:52.436Z,53.05
2019-01-11T17:33:19.415Z,52.70
2019-01-11T17:35:46.374Z,53.11
2019-01-11T17:38:13.303Z,53.97
2019-01-11T17:40:40.572Z,53.55
2019-01-11T17:43:08.619Z,53.68
2019-01-11T17:45:36.905Z,53.80
2019-01-11T17:48:04.920Z,53.80
2019-01-11T17:50:34.875Z,53.39
2019-01-11T17:53:01.797Z,54.10
2019-01-11T17:55:31.235Z,53.89
2019-01-11T17:57:58.797Z,53.73
2019-01-11T18:02:58.272Z,53.40
2019-01-11T18:05:25.729Z,53.35
2019-01-11T18:07:59.472Z,54.07
2019-01-11T18:10:26.671Z,52.73
2019-01-11T18:12:54.612Z,53.10
2019-01-11T18:15:21.564Z,53.14
2019-01-11T18:18:05.832Z,53.13
2019-01-11T18:20:34.252Z,52.97
2019-01-11T18:23:06.869Z,52.84
2019-01-11T18:25:31.114Z,52.92
2019-01-11T18:27:58.110Z,53.14
2019-01-11T18:30:25.363Z,52.54
2019-01-11T18:32:52.904Z,52.39
2019-01-11T18:35:20.327Z,52.74
2019-01-11T18:37:47.271Z,53.13
2019-01-11T18:40:14.362Z,53.96
2019-01-11T18:42:45.181Z,53.69
2019-01-11T18:45:12.226Z,53.21
2019-01-11T18:47:39.708Z,52.83
2019-01-11T18:50:06.752Z,53.11
2019-01-11T18:52:35.220Z,53.01
2019-01-11T18:55:02.204Z,53.73
2019-01-11T18:57:29.388Z,53.98
2019-01-11T18:59:56.765Z,53.70
2019-01-11T19:02:24.899Z,53.77
2019-01-11T19:04:51.825Z,53.65
2019-01-11T19:07:19.267Z,53.71
2019-01-11T19:09:46.493Z,52.89
2019-01-11T19:12:15.104Z,52.92
2019-01-11T19:14:42.169Z,53.58
2019-01-11T19:17:09.403Z,53.55
2019-01-11T19:19:39.226Z,53.37
2019-01-11T19:22:06.475Z,53.41
2019-01-11T19:24:33.628Z,54.18
2019-01-11T19:27:00.707Z,53.80
2019-01-11T19:29:27.989Z,54.20
2019-01-11T19:31:54.897Z,53.56
2019-01-11T19:34:22.641Z,53.39
2019-01-11T19:36:49.954Z,53.74
2019-01-11T19:39:17.072Z,52.84
2019-01-11T19:41:44.258Z,53.63
2019-01-11T19:44:11.580Z,53.57
2019-01-11T19:46:50.930Z,54.13
2019-01-11T19:49:19.462Z,54.38
2019-01-11T19:51:47.681Z,54.74
2019-01-11T19:54:14.998Z,54.09
2019-01-11T19:56:42.285Z,53.50
2019-01-11T19:59:09.556Z,53.29
2019-01-11T20:01:36.962Z,53.70
2019-01-11T20:04:04.346Z,52.56
2019-01-11T20:06:31.320Z,53.18
2019-01-11T20:08:58.303Z,53.58
2019-01-11T20:11:25.211Z,53.75
2019-01-11T20:13:52.912Z,53.60
2019-01-11T20:16:20.002Z,53.87
2019-01-11T20:18:46.910Z,55.85
2019-01-11T20:21:13.863Z,53.92
2019-01-11T20:23:40.854Z,53.75
2019-01-11T20:26:07.787Z,54.24
2019-01-11T20:28:35.216Z,54.28
2019-01-11T20:33:35.895Z,53.46
2019-01-11T20:36:03.000Z,53.47
2019-01-11T20:38:30.008Z,53.52
2019-01-11T20:40:57.298Z,53.22
2019-01-11T20:43:24.633Z,53.66
2019-01-11T20:45:52.013Z,54.13
2019-01-11T20:48:19.013Z,53.76
2019-01-11T20:50:46.104Z,53.75
2019-01-11T20:53:13.082Z,53.32
2019-01-11T20:55:40.332Z,53.12
2019-01-11T20:58:07.710Z,53.36
2019-01-11T21:00:35.243Z,53.46
2019-01-11T21:03:13.919Z,52.89
2019-01-11T21:05:40.964Z,53.12
2019-01-11T21:08:11.409Z,54.02
2019-01-11T21:10:38.736Z,53.31
2019-01-11T21:13:09.564Z,53.45
2019-01-11T21:15:36.648Z,53.83
2019-01-11T21:18:03.682Z,53.71
2019-01-11T21:20:33.485Z,53.88
2019-01-11T21:23:00.474Z,53.39
2019-01-11T21:25:28.597Z,53.20
2019-01-11T21:27:55.586Z,53.27
2019-01-11T21:30:22.678Z,53.70
2019-01-11T21:32:49.632Z,53.36
2019-01-11T21:35:16.668Z,52.88
2019-01-11T21:37:43.659Z,53.23
2019-01-11T21:40:11.266Z,53.31
2019-01-11T21:45:17.645Z,53.55
2019-01-11T21:47:44.612Z,53.92
2019-01-11T21:50:12.072Z,53.93
2019-01-11T21:52:39.160Z,53.72
2019-01-11T21:55:06.441Z,53.70
2019-01-11T21:57:33.894Z,53.53
2019-01-11T22:00:00.910Z,52.81
2019-01-11T22:02:28.199Z,52.40
2019-01-11T22:04:55.459Z,52.77
2019-01-11T22:07:23.475Z,53.43
2019-01-11T22:09:51.222Z,53.35
2019-01-11T22:12:18.662Z,53.30
2019-01-11T22:14:46.014Z,52.96
2019-01-11T22:17:13.965Z,52.68
2019-01-11T22:19:40.921Z,52.69
2019-01-11T22:22:08.182Z,52.80
2019-01-11T22:24:43.579Z,52.74
2019-01-11T22:27:10.725Z,52.62
2019-01-11T22:29:37.661Z,52.74
2019-01-11T22:32:05.071Z,53.09
2019-01-11T22:34:32.012Z,52.44
2019-01-11T22:36:59.328Z,52.90
2019-01-11T22:39:26.322Z,53.02
2019-01-11T22:41:53.754Z,53.08
2019-01-11T22:44:20.736Z,53.78
2019-01-11T22:46:48.050Z,53.57
2019-01-11T22:49:14.938Z,52.84
2019-01-11T22:51:41.870Z,52.67
2019-01-11T22:56:48.286Z,53.20
2019-01-11T22:59:15.180Z,53.66
2019-01-11T23:01:43.551Z,53.07
2019-01-11T23:04:10.913Z,52.92
2019-01-11T23:06:38.161Z,53.27
2019-01-11T23:09:05.394Z,52.40
2019-01-11T23:11:32.798Z,52.44
2019-01-11T23:13:59.765Z,53.00
2019-01-11T23:16:27.054Z,53.09
2019-01-11T23:18:54.317Z,52.58
2019-01-11T23:21:21.286Z,52.47
2019-01-11T23:23:48.270Z,52.66
2019-01-11T23:26:15.798Z,52.48
2019-01-11T23:28:42.750Z,53.06
2019-01-11T23:31:09.672Z,52.85
2019-01-11T23:33:36.901Z,52.55
2019-01-11T23:36:06.449Z,52.69
2019-01-11T23:38:33.396Z,52.36
2019-01-11T23:41:00.540Z,52.98
2019-01-11T23:43:30.163Z,53.12
2019-01-11T23:45:57.310Z,52.78
2019-01-11T23:48:25.199Z,52.16
2019-01-11T23:50:52.493Z,52.19
2019-01-11T23:53:19.460Z,52.62
2019-01-11T23:55:46.707Z,51.71
2019-01-11T23:58:13.609Z,52.15
